sensor_id;sensor_type;location;lat;lon;timestamp;pressure;altitude;pressure_sealevel;temperature;humidity
4745;BME280;2386;42.138;24.746;2023-01-19T00:01:22;98715.25;;;13.18;100.00
4745;BME280;2386;42.138;24.746;2023-01-19T00:03:47;98728.56;;;13.14;100.00
4745;BME280;2386;42.138;24.746;2023-01-19T00:06:12;98720.66;;;13.07;100.00
4745;BME280;2386;42.138;24.746;2023-01-19T00:08:38;98699.41;;;13.04;100.00
4745;BME280;2386;42.138;24.746;2023-01-19T00:11:04;98717.09;;;13.07;100.00
4745;BME280;2386;42.138;24.746;2023-01-19T00:13:30;98725.81;;;13.09;100.00
4745;BME280;2386;42.138;24.746;2023-01-19T00:15:55;98738.34;;;13.05;100.00
4745;BME280;2386;42.138;24.746;2023-01-19T00:18:20;98741.31;;;12.98;100.00
4745;BME280;2386;42.138;24.746;2023-01-19T00:20:47;98727.44;;;13.00;100.00
4745;BME280;2386;42.138;24.746;2023-01-19T00:23:14;98731.81;;;13.06;100.00
4745;BME280;2386;42.138;24.746;2023-01-19T00:25:40;98723.38;;;13.07;100.00
4745;BME280;2386;42.138;24.746;2023-01-19T00:28:13;98712.47;;;13.07;100.00
4745;BME280;2386;42.138;24.746;2023-01-19T00:30:39;98704.28;;;12.97;100.00
4745;BME280;2386;42.138;24.746;2023-01-19T00:33:04;98728.81;;;13.02;100.00
4745;BME280;2386;42.138;24.746;2023-01-19T00:35:30;98736.16;;;13.02;100.00
4745;BME280;2386;42.138;24.746;2023-01-19T00:37:56;98744.59;;;13.00;100.00
4745;BME280;2386;42.138;24.746;2023-01-19T00:40:22;98747.84;;;12.97;100.00
4745;BME280;2386;42.138;24.746;2023-01-19T00:42:47;98753.28;;;12.97;100.00
4745;BME280;2386;42.138;24.746;2023-01-19T00:45:15;98766.91;;;12.97;100.00
4745;BME280;2386;42.138;24.746;2023-01-19T00:47:42;98744.31;;;13.02;100.00
4745;BME280;2386;42.138;24.746;2023-01-19T00:50:09;98751.13;;;13.04;100.00
4745;BME280;2386;42.138;24.746;2023-01-19T00:52:39;98752.78;;;13.05;100.00
4745;BME280;2386;42.138;24.746;2023-01-19T00:55:06;98744.28;;;12.92;100.00
4745;BME280;2386;42.138;24.746;2023-01-19T00:57:32;98739.69;;;12.97;100.00
4745;BME280;2386;42.138;24.746;2023-01-19T00:59:57;98736.69;;;12.99;100.00
4745;BME280;2386;42.138;24.746;2023-01-19T01:02:23;98742.97;;;13.04;100.00
4745;BME280;2386;42.138;24.746;2023-01-19T01:04:48;98752.78;;;13.15;100.00
4745;BME280;2386;42.138;24.746;2023-01-19T01:07:20;98727.19;;;13.06;100.00
4745;BME280;2386;42.138;24.746;2023-01-19T01:09:45;98748.41;;;13.09;100.00
4745;BME280;2386;42.138;24.746;2023-01-19T01:12:10;98741.63;;;13.12;100.00
4745;BME280;2386;42.138;24.746;2023-01-19T01:14:36;98746.22;;;13.01;100.00
4745;BME280;2386;42.138;24.746;2023-01-19T01:17:01;98744.31;;;12.97;100.00
4745;BME280;2386;42.138;24.746;2023-01-19T01:19:27;98740.72;;;12.81;100.00
4745;BME280;2386;42.138;24.746;2023-01-19T01:21:52;98742.06;;;12.78;100.00
4745;BME280;2386;42.138;24.746;2023-01-19T01:24:17;98743.97;;;12.83;100.00
4745;BME280;2386;42.138;24.746;2023-01-19T01:26:43;98732.00;;;12.84;100.00
4745;BME280;2386;42.138;24.746;2023-01-19T01:29:08;98739.56;;;12.67;100.00
4745;BME280;2386;42.138;24.746;2023-01-19T01:31:34;98749.66;;;12.76;100.00
4745;BME280;2386;42.138;24.746;2023-01-19T01:34:00;98750.72;;;12.70;100.00
4745;BME280;2386;42.138;24.746;2023-01-19T01:36:25;98738.22;;;12.69;100.00
4745;BME280;2386;42.138;24.746;2023-01-19T01:38:53;98735.78;;;12.73;100.00
4745;BME280;2386;42.138;24.746;2023-01-19T01:41:18;98736.88;;;12.72;100.00
4745;BME280;2386;42.138;24.746;2023-01-19T01:43:53;98739.03;;;12.70;100.00
4745;BME280;2386;42.138;24.746;2023-01-19T01:46:22;98751.78;;;12.54;100.00
4745;BME280;2386;42.138;24.746;2023-01-19T01:48:56;98755.31;;;12.55;100.00
4745;BME280;2386;42.138;24.746;2023-01-19T01:51:33;98767.28;;;12.54;100.00
4745;BME280;2386;42.138;24.746;2023-01-19T01:54:09;98770.03;;;12.64;100.00
4745;BME280;2386;42.138;24.746;2023-01-19T01:56:39;98778.75;;;12.66;100.00
4745;BME280;2386;42.138;24.746;2023-01-19T01:59:09;98770.59;;;12.61;100.00
4745;BME280;2386;42.138;24.746;2023-01-19T02:01:36;98767.56;;;12.57;100.00
4745;BME280;2386;42.138;24.746;2023-01-19T02:04:20;98765.94;;;12.56;100.00
4745;BME280;2386;42.138;24.746;2023-01-19T02:06:46;98758.25;;;12.43;100.00
4745;BME280;2386;42.138;24.746;2023-01-19T02:09:34;98768.06;;;12.49;100.00
4745;BME280;2386;42.138;24.746;2023-01-19T02:12:18;98761.25;;;12.46;100.00
4745;BME280;2386;42.138;24.746;2023-01-19T02:15:03;98771.50;;;12.29;100.00
4745;BME280;2386;42.138;24.746;2023-01-19T02:17:29;98768.16;;;12.17;100.00
4745;BME280;2386;42.138;24.746;2023-01-19T02:19:54;98770.44;;;12.35;100.00
4745;BME280;2386;42.138;24.746;2023-01-19T02:22:30;98748.97;;;12.39;100.00
4745;BME280;2386;42.138;24.746;2023-01-19T02:25:03;98751.94;;;12.32;100.00
4745;BME280;2386;42.138;24.746;2023-01-19T02:27:30;98752.94;;;12.21;100.00
4745;BME280;2386;42.138;24.746;2023-01-19T02:29:56;98772.06;;;12.36;100.00
4745;BME280;2386;42.138;24.746;2023-01-19T02:32:23;98751.34;;;12.25;100.00
4745;BME280;2386;42.138;24.746;2023-01-19T02:34:48;98756.00;;;12.30;100.00
4745;BME280;2386;42.138;24.746;2023-01-19T02:37:15;98750.97;;;12.11;100.00
4745;BME280;2386;42.138;24.746;2023-01-19T02:40:01;98744.16;;;12.09;100.00
4745;BME280;2386;42.138;24.746;2023-01-19T02:42:36;98735.56;;;12.22;100.00
4745;BME280;2386;42.138;24.746;2023-01-19T02:45:04;98727.69;;;12.26;100.00
4745;BME280;2386;42.138;24.746;2023-01-19T02:47:38;98746.72;;;12.26;100.00
4745;BME280;2386;42.138;24.746;2023-01-19T02:50:04;98777.97;;;12.23;100.00
4745;BME280;2386;42.138;24.746;2023-01-19T02:52:51;98741.03;;;12.27;100.00
4745;BME280;2386;42.138;24.746;2023-01-19T02:55:21;98763.84;;;12.26;100.00
4745;BME280;2386;42.138;24.746;2023-01-19T03:06:01;98786.28;;;12.48;100.00
4745;BME280;2386;42.138;24.746;2023-01-19T03:08:47;98792.25;;;12.45;100.00
4745;BME280;2386;42.138;24.746;2023-01-19T03:11:17;98784.09;;;12.45;100.00
4745;BME280;2386;42.138;24.746;2023-01-19T03:18:54;98784.38;;;12.44;100.00
4745;BME280;2386;42.138;24.746;2023-01-19T03:21:25;98776.41;;;12.32;100.00
4745;BME280;2386;42.138;24.746;2023-01-19T03:23:52;98769.38;;;12.36;100.00
4745;BME280;2386;42.138;24.746;2023-01-19T03:26:23;98784.28;;;12.29;100.00
4745;BME280;2386;42.138;24.746;2023-01-19T03:28:51;98780.75;;;12.33;100.00
4745;BME280;2386;42.138;24.746;2023-01-19T03:31:21;98789.16;;;12.27;100.00
4745;BME280;2386;42.138;24.746;2023-01-19T03:33:50;98783.38;;;12.18;100.00
4745;BME280;2386;42.138;24.746;2023-01-19T03:36:29;98779.34;;;12.26;100.00
4745;BME280;2386;42.138;24.746;2023-01-19T03:38:57;98771.50;;;12.29;100.00
4745;BME280;2386;42.138;24.746;2023-01-19T03:41:23;98789.44;;;12.30;100.00
4745;BME280;2386;42.138;24.746;2023-01-19T03:43:51;98784.00;;;12.30;100.00
4745;BME280;2386;42.138;24.746;2023-01-19T03:46:18;98776.16;;;12.34;100.00
4745;BME280;2386;42.138;24.746;2023-01-19T03:48:45;98797.91;;;12.34;100.00
4745;BME280;2386;42.138;24.746;2023-01-19T03:51:11;98784.78;;;12.26;100.00
4745;BME280;2386;42.138;24.746;2023-01-19T03:53:38;98791.50;;;12.13;100.00
4745;BME280;2386;42.138;24.746;2023-01-19T03:56:04;98784.69;;;12.10;100.00
4745;BME280;2386;42.138;24.746;2023-01-19T03:58:30;98790.97;;;12.16;100.00
4745;BME280;2386;42.138;24.746;2023-01-19T04:00:55;98799.72;;;12.23;100.00
4745;BME280;2386;42.138;24.746;2023-01-19T04:03:21;98796.38;;;12.11;100.00
4745;BME280;2386;42.138;24.746;2023-01-19T04:05:47;98800.09;;;12.00;100.00
4745;BME280;2386;42.138;24.746;2023-01-19T04:08:12;98801.25;;;12.09;100.00
4745;BME280;2386;42.138;24.746;2023-01-19T04:10:38;98812.69;;;12.11;100.00
4745;BME280;2386;42.138;24.746;2023-01-19T04:13:04;98823.34;;;11.80;100.00
4745;BME280;2386;42.138;24.746;2023-01-19T04:15:30;98795.13;;;11.87;100.00
4745;BME280;2386;42.138;24.746;2023-01-19T04:17:57;98787.81;;;11.92;100.00
4745;BME280;2386;42.138;24.746;2023-01-19T04:20:23;98800.88;;;11.95;100.00
4745;BME280;2386;42.138;24.746;2023-01-19T04:22:48;98804.84;;;11.77;100.00
4745;BME280;2386;42.138;24.746;2023-01-19T04:25:14;98801.34;;;11.82;100.00
4745;BME280;2386;42.138;24.746;2023-01-19T04:27:40;98797.28;;;11.84;100.00
4745;BME280;2386;42.138;24.746;2023-01-19T04:30:06;98802.78;;;11.95;100.00
4745;BME280;2386;42.138;24.746;2023-01-19T04:32:31;98812.50;;;11.86;100.00
4745;BME280;2386;42.138;24.746;2023-01-19T04:34:57;98805.56;;;11.73;100.00
4745;BME280;2386;42.138;24.746;2023-01-19T04:37:23;98818.66;;;11.76;100.00
4745;BME280;2386;42.138;24.746;2023-01-19T04:39:48;98804.66;;;11.62;100.00
4745;BME280;2386;42.138;24.746;2023-01-19T04:42:14;98803.16;;;11.76;100.00
4745;BME280;2386;42.138;24.746;2023-01-19T04:44:39;98791.13;;;11.67;100.00
4745;BME280;2386;42.138;24.746;2023-01-19T04:47:04;98790.66;;;11.75;100.00
4745;BME280;2386;42.138;24.746;2023-01-19T04:49:30;98793.38;;;11.75;100.00
4745;BME280;2386;42.138;24.746;2023-01-19T04:51:55;98808.47;;;11.61;100.00
4745;BME280;2386;42.138;24.746;2023-01-19T04:54:21;98817.06;;;11.53;100.00
4745;BME280;2386;42.138;24.746;2023-01-19T04:56:47;98811.63;;;11.53;100.00
4745;BME280;2386;42.138;24.746;2023-01-19T04:59:12;98801.91;;;11.57;100.00
4745;BME280;2386;42.138;24.746;2023-01-19T05:01:37;98813.69;;;11.68;100.00
4745;BME280;2386;42.138;24.746;2023-01-19T05:04:03;98807.13;;;11.64;100.00
4745;BME280;2386;42.138;24.746;2023-01-19T05:06:31;98815.53;;;11.62;100.00
4745;BME280;2386;42.138;24.746;2023-01-19T05:08:57;98813.72;;;11.73;100.00
4745;BME280;2386;42.138;24.746;2023-01-19T05:11:22;98808.00;;;11.69;100.00
4745;BME280;2386;42.138;24.746;2023-01-19T05:13:47;98803.06;;;11.66;100.00
4745;BME280;2386;42.138;24.746;2023-01-19T05:16:13;98811.16;;;11.61;100.00
4745;BME280;2386;42.138;24.746;2023-01-19T05:18:38;98825.91;;;11.16;100.00
4745;BME280;2386;42.138;24.746;2023-01-19T05:21:05;98821.34;;;11.22;100.00
4745;BME280;2386;42.138;24.746;2023-01-19T05:23:31;98819.63;;;11.38;100.00
4745;BME280;2386;42.138;24.746;2023-01-19T05:25:57;98816.19;;;11.47;100.00
4745;BME280;2386;42.138;24.746;2023-01-19T05:28:25;98809.38;;;11.45;100.00
4745;BME280;2386;42.138;24.746;2023-01-19T05:30:51;98831.00;;;11.62;100.00
4745;BME280;2386;42.138;24.746;2023-01-19T05:33:16;98835.84;;;11.33;100.00
4745;BME280;2386;42.138;24.746;2023-01-19T05:35:42;98829.53;;;11.49;100.00
4745;BME280;2386;42.138;24.746;2023-01-19T05:38:07;98842.13;;;11.60;100.00
4745;BME280;2386;42.138;24.746;2023-01-19T05:40:33;98835.31;;;11.58;100.00
4745;BME280;2386;42.138;24.746;2023-01-19T05:43:00;98823.94;;;11.61;100.00
4745;BME280;2386;42.138;24.746;2023-01-19T05:45:26;98821.44;;;11.54;100.00
4745;BME280;2386;42.138;24.746;2023-01-19T05:47:53;98836.75;;;11.65;100.00
4745;BME280;2386;42.138;24.746;2023-01-19T05:50:18;98837.09;;;11.74;100.00
4745;BME280;2386;42.138;24.746;2023-01-19T05:52:44;98848.88;;;11.79;100.00
4745;BME280;2386;42.138;24.746;2023-01-19T05:55:10;98851.03;;;11.77;100.00
4745;BME280;2386;42.138;24.746;2023-01-19T05:57:35;98848.41;;;11.88;100.00
4745;BME280;2386;42.138;24.746;2023-01-19T06:00:02;98840.25;;;11.88;100.00
4745;BME280;2386;42.138;24.746;2023-01-19T06:02:28;98866.66;;;11.97;100.00
4745;BME280;2386;42.138;24.746;2023-01-19T06:04:54;98873.53;;;12.05;100.00
4745;BME280;2386;42.138;24.746;2023-01-19T06:07:20;98886.03;;;12.06;100.00
4745;BME280;2386;42.138;24.746;2023-01-19T06:09:45;98866.00;;;11.80;100.00
4745;BME280;2386;42.138;24.746;2023-01-19T06:12:11;98861.75;;;11.94;100.00
4745;BME280;2386;42.138;24.746;2023-01-19T06:14:36;98856.00;;;11.86;100.00
4745;BME280;2386;42.138;24.746;2023-01-19T06:17:02;98863.06;;;11.87;100.00
4745;BME280;2386;42.138;24.746;2023-01-19T06:19:30;98869.69;;;11.74;100.00
4745;BME280;2386;42.138;24.746;2023-01-19T06:21:55;98867.69;;;11.64;100.00
4745;BME280;2386;42.138;24.746;2023-01-19T06:24:21;98852.13;;;11.55;100.00
4745;BME280;2386;42.138;24.746;2023-01-19T06:26:48;98851.41;;;11.64;100.00
4745;BME280;2386;42.138;24.746;2023-01-19T06:29:13;98840.59;;;11.69;100.00
4745;BME280;2386;42.138;24.746;2023-01-19T06:31:39;98863.31;;;11.85;100.00
4745;BME280;2386;42.138;24.746;2023-01-19T06:34:05;98861.75;;;11.94;100.00
4745;BME280;2386;42.138;24.746;2023-01-19T06:36:31;98864.72;;;11.93;100.00
4745;BME280;2386;42.138;24.746;2023-01-19T06:38:56;98877.59;;;12.02;100.00
4745;BME280;2386;42.138;24.746;2023-01-19T06:41:22;98880.31;;;12.02;100.00
4745;BME280;2386;42.138;24.746;2023-01-19T06:43:47;98878.75;;;12.11;100.00
4745;BME280;2386;42.138;24.746;2023-01-19T06:46:13;98878.19;;;12.09;100.00
4745;BME280;2386;42.138;24.746;2023-01-19T06:48:38;98887.59;;;11.97;100.00
4745;BME280;2386;42.138;24.746;2023-01-19T06:51:04;98892.50;;;12.00;100.00
4745;BME280;2386;42.138;24.746;2023-01-19T06:53:31;98885.56;;;11.82;100.00
4745;BME280;2386;42.138;24.746;2023-01-19T06:56:00;98894.66;;;11.98;100.00
4745;BME280;2386;42.138;24.746;2023-01-19T06:58:27;98886.97;;;11.84;100.00
4745;BME280;2386;42.138;24.746;2023-01-19T07:00:53;98868.44;;;11.81;100.00
4745;BME280;2386;42.138;24.746;2023-01-19T07:03:21;98873.94;;;11.92;100.00
4745;BME280;2386;42.138;24.746;2023-01-19T07:05:50;98892.88;;;12.08;100.00
4745;BME280;2386;42.138;24.746;2023-01-19T07:08:15;98886.09;;;12.11;100.00
4745;BME280;2386;42.138;24.746;2023-01-19T07:10:41;98880.59;;;12.06;100.00
4745;BME280;2386;42.138;24.746;2023-01-19T07:13:06;98880.09;;;12.09;100.00
4745;BME280;2386;42.138;24.746;2023-01-19T07:15:32;98897.56;;;12.18;100.00
4745;BME280;2386;42.138;24.746;2023-01-19T07:17:59;98900.38;;;12.28;100.00
4745;BME280;2386;42.138;24.746;2023-01-19T07:20:25;98900.69;;;12.32;100.00
4745;BME280;2386;42.138;24.746;2023-01-19T07:22:55;98887.94;;;12.37;100.00
4745;BME280;2386;42.138;24.746;2023-01-19T07:25:21;98896.47;;;12.51;100.00
4745;BME280;2386;42.138;24.746;2023-01-19T07:27:46;98881.41;;;12.38;100.00
4745;BME280;2386;42.138;24.746;2023-01-19T07:30:12;98892.38;;;12.48;100.00
4745;BME280;2386;42.138;24.746;2023-01-19T07:32:40;98885.06;;;12.54;100.00
4745;BME280;2386;42.138;24.746;2023-01-19T07:35:07;98879.34;;;12.50;100.00
4745;BME280;2386;42.138;24.746;2023-01-19T07:37:33;98882.34;;;12.54;100.00
4745;BME280;2386;42.138;24.746;2023-01-19T07:39:58;98889.72;;;12.59;100.00
4745;BME280;2386;42.138;24.746;2023-01-19T07:42:24;98878.84;;;12.64;100.00
4745;BME280;2386;42.138;24.746;2023-01-19T07:44:49;98889.28;;;12.77;100.00
4745;BME280;2386;42.138;24.746;2023-01-19T07:47:15;98881.69;;;12.84;100.00
4745;BME280;2386;42.138;24.746;2023-01-19T07:49:40;98890.75;;;12.95;100.00
4745;BME280;2386;42.138;24.746;2023-01-19T07:52:06;98883.91;;;12.92;100.00
4745;BME280;2386;42.138;24.746;2023-01-19T07:54:32;98876.91;;;13.01;100.00
4745;BME280;2386;42.138;24.746;2023-01-19T07:56:57;98863.31;;;13.06;100.00
4745;BME280;2386;42.138;24.746;2023-01-19T07:59:26;98885.75;;;13.24;100.00
4745;BME280;2386;42.138;24.746;2023-01-19T08:01:52;98891.50;;;13.37;100.00
4745;BME280;2386;42.138;24.746;2023-01-19T08:04:18;98879.25;;;13.45;100.00
4745;BME280;2386;42.138;24.746;2023-01-19T08:06:44;98864.56;;;13.46;100.00
4745;BME280;2386;42.138;24.746;2023-01-19T08:09:41;98889.09;;;13.56;100.00
4745;BME280;2386;42.138;24.746;2023-01-19T08:12:07;98886.38;;;13.51;100.00
4745;BME280;2386;42.138;24.746;2023-01-19T08:14:32;98880.69;;;13.68;100.00
4745;BME280;2386;42.138;24.746;2023-01-19T08:17:01;98880.44;;;13.79;100.00
4745;BME280;2386;42.138;24.746;2023-01-19T08:19:27;98877.44;;;13.81;100.00
4745;BME280;2386;42.138;24.746;2023-01-19T08:32:06;98874.72;;;14.22;95.18
4745;BME280;2386;42.138;24.746;2023-01-19T08:34:31;98896.28;;;14.28;93.51
4745;BME280;2386;42.138;24.746;2023-01-19T08:36:57;98883.19;;;14.30;93.30
4745;BME280;2386;42.138;24.746;2023-01-19T08:39:23;98888.69;;;14.51;93.42
4745;BME280;2386;42.138;24.746;2023-01-19T08:41:49;98867.38;;;14.48;94.09
4745;BME280;2386;42.138;24.746;2023-01-19T08:44:15;98866.03;;;14.45;92.91
4745;BME280;2386;42.138;24.746;2023-01-19T08:46:40;98882.94;;;14.57;92.38
4745;BME280;2386;42.138;24.746;2023-01-19T08:49:06;98842.25;;;14.61;93.45
4745;BME280;2386;42.138;24.746;2023-01-19T08:51:32;98862.72;;;14.78;92.26
4745;BME280;2386;42.138;24.746;2023-01-19T08:53:57;98872.25;;;14.81;90.37
4745;BME280;2386;42.138;24.746;2023-01-19T08:56:23;98859.91;;;14.89;89.21
4745;BME280;2386;42.138;24.746;2023-01-19T08:58:48;98859.63;;;14.95;88.64
4745;BME280;2386;42.138;24.746;2023-01-19T09:01:14;98843.22;;;15.00;89.98
4745;BME280;2386;42.138;24.746;2023-01-19T09:03:41;98837.47;;;15.07;87.77
4745;BME280;2386;42.138;24.746;2023-01-19T09:06:08;98851.91;;;15.18;86.35
4745;BME280;2386;42.138;24.746;2023-01-19T09:08:34;98868.78;;;15.30;84.59
4745;BME280;2386;42.138;24.746;2023-01-19T09:10:59;98842.84;;;15.27;83.78
4745;BME280;2386;42.138;24.746;2023-01-19T09:13:25;98840.03;;;15.42;85.63
4745;BME280;2386;42.138;24.746;2023-01-19T09:15:50;98835.38;;;15.43;83.83
4745;BME280;2386;42.138;24.746;2023-01-19T09:18:19;98853.38;;;15.54;82.92
4745;BME280;2386;42.138;24.746;2023-01-19T09:20:47;98851.69;;;15.63;84.04
4745;BME280;2386;42.138;24.746;2023-01-19T09:23:16;98847.53;;;15.71;82.65
4745;BME280;2386;42.138;24.746;2023-01-19T09:25:43;98841.81;;;15.67;82.45
4745;BME280;2386;42.138;24.746;2023-01-19T09:28:10;98842.56;;;15.78;81.02
4745;BME280;2386;42.138;24.746;2023-01-19T09:30:37;98825.59;;;15.81;80.01
4745;BME280;2386;42.138;24.746;2023-01-19T09:33:04;98827.41;;;15.96;80.28
4745;BME280;2386;42.138;24.746;2023-01-19T09:35:34;98809.88;;;15.97;80.71
4745;BME280;2386;42.138;24.746;2023-01-19T09:37:59;98822.34;;;16.13;77.14
4745;BME280;2386;42.138;24.746;2023-01-19T09:40:25;98823.97;;;16.14;77.32
4745;BME280;2386;42.138;24.746;2023-01-19T09:42:56;98816.25;;;16.21;76.47
4745;BME280;2386;42.138;24.746;2023-01-19T09:45:33;98821.03;;;16.34;76.56
4745;BME280;2386;42.138;24.746;2023-01-19T09:48:03;98809.78;;;16.36;76.63
4745;BME280;2386;42.138;24.746;2023-01-19T09:50:33;98830.19;;;16.49;75.59
4745;BME280;2386;42.138;24.746;2023-01-19T09:53:16;98811.56;;;16.51;75.97
4745;BME280;2386;42.138;24.746;2023-01-19T09:55:45;98799.78;;;16.50;75.42
4745;BME280;2386;42.138;24.746;2023-01-19T09:58:15;98795.84;;;16.61;74.33
4745;BME280;2386;42.138;24.746;2023-01-19T10:00:49;98789.81;;;16.64;74.23
4745;BME280;2386;42.138;24.746;2023-01-19T10:03:16;98780.22;;;16.67;70.54
4745;BME280;2386;42.138;24.746;2023-01-19T10:05:52;98790.41;;;16.85;68.50
4745;BME280;2386;42.138;24.746;2023-01-19T10:08:45;98799.59;;;16.94;67.18
4745;BME280;2386;42.138;24.746;2023-01-19T10:11:32;98795.69;;;17.00;66.49
4745;BME280;2386;42.138;24.746;2023-01-19T10:14:03;98800.81;;;17.07;66.81
4745;BME280;2386;42.138;24.746;2023-01-19T10:16:42;98781.03;;;17.10;61.56
4745;BME280;2386;42.138;24.746;2023-01-19T10:21:43;98789.34;;;17.42;60.51
4745;BME280;2386;42.138;24.746;2023-01-19T10:24:20;98784.03;;;17.51;60.06
4745;BME280;2386;42.138;24.746;2023-01-19T10:26:50;98774.63;;;17.57;60.60
4745;BME280;2386;42.138;24.746;2023-01-19T10:29:25;98775.06;;;17.64;62.31
4745;BME280;2386;42.138;24.746;2023-01-19T10:32:21;98750.66;;;17.63;61.32
4745;BME280;2386;42.138;24.746;2023-01-19T10:35:13;98777.47;;;17.85;62.17
4745;BME280;2386;42.138;24.746;2023-01-19T10:58:29;98757.81;;;18.43;52.15
4745;BME280;2386;42.138;24.746;2023-01-19T11:01:25;98740.91;;;18.35;51.34
4745;BME280;2386;42.138;24.746;2023-01-19T11:03:51;98731.16;;;18.43;51.08
4745;BME280;2386;42.138;24.746;2023-01-19T11:08:46;98728.53;;;18.52;49.50
4745;BME280;2386;42.138;24.746;2023-01-19T11:11:13;98722.44;;;18.55;49.64
4745;BME280;2386;42.138;24.746;2023-01-19T11:13:40;98736.28;;;18.63;49.38
4745;BME280;2386;42.138;24.746;2023-01-19T11:16:24;98734.84;;;18.66;49.71
4745;BME280;2386;42.138;24.746;2023-01-19T11:18:53;98724.06;;;18.69;49.53
4745;BME280;2386;42.138;24.746;2023-01-19T11:21:23;98725.78;;;18.65;47.32
4745;BME280;2386;42.138;24.746;2023-01-19T11:23:51;98734.63;;;18.76;49.14
4745;BME280;2386;42.138;24.746;2023-01-19T11:26:29;98722.22;;;18.65;47.33
4745;BME280;2386;42.138;24.746;2023-01-19T11:28:58;98719.56;;;18.74;46.69
4745;BME280;2386;42.138;24.746;2023-01-19T11:31:31;98723.03;;;18.79;47.16
4745;BME280;2386;42.138;24.746;2023-01-19T11:33:59;98733.22;;;18.79;47.75
4745;BME280;2386;42.138;24.746;2023-01-19T11:36:31;98741.56;;;18.74;43.29
4745;BME280;2386;42.138;24.746;2023-01-19T11:39:20;98729.66;;;18.78;46.30
4745;BME280;2386;42.138;24.746;2023-01-19T11:41:53;98723.28;;;19.55;36.93
4745;BME280;2386;42.138;24.746;2023-01-19T11:47:43;98713.28;;;19.59;40.43
4745;BME280;2386;42.138;24.746;2023-01-19T11:50:30;98737.44;;;20.15;34.93
4745;BME280;2386;42.138;24.746;2023-01-19T11:53:10;98719.47;;;20.18;34.51
4745;BME280;2386;42.138;24.746;2023-01-19T11:55:56;98723.81;;;20.10;35.03
4745;BME280;2386;42.138;24.746;2023-01-19T11:58:23;98712.97;;;20.14;34.62
4745;BME280;2386;42.138;24.746;2023-01-19T12:03:29;98710.44;;;20.26;35.04
4745;BME280;2386;42.138;24.746;2023-01-19T12:06:03;98715.53;;;20.10;35.42
4745;BME280;2386;42.138;24.746;2023-01-19T12:08:34;98698.38;;;20.05;34.63
4745;BME280;2386;42.138;24.746;2023-01-19T12:11:01;98710.81;;;20.02;35.14
4745;BME280;2386;42.138;24.746;2023-01-19T12:13:31;98715.97;;;19.95;34.34
4745;BME280;2386;42.138;24.746;2023-01-19T12:16:07;98699.31;;;20.00;34.62
4745;BME280;2386;42.138;24.746;2023-01-19T12:18:41;98689.56;;;19.94;36.91
4745;BME280;2386;42.138;24.746;2023-01-19T12:21:08;98701.34;;;19.86;37.22
4745;BME280;2386;42.138;24.746;2023-01-19T12:23:47;98702.53;;;19.71;35.97
4745;BME280;2386;42.138;24.746;2023-01-19T12:28:43;98702.31;;;20.21;32.27
4745;BME280;2386;42.138;24.746;2023-01-19T12:31:16;98681.72;;;20.18;32.52
4745;BME280;2386;42.138;24.746;2023-01-19T12:33:42;98688.00;;;20.10;34.52
4745;BME280;2386;42.138;24.746;2023-01-19T12:36:33;98680.03;;;20.00;33.50
4745;BME280;2386;42.138;24.746;2023-01-19T12:39:15;98677.75;;;19.93;32.79
4745;BME280;2386;42.138;24.746;2023-01-19T12:41:42;98686.50;;;19.95;33.25
4745;BME280;2386;42.138;24.746;2023-01-19T12:54:51;98656.66;;;19.89;33.00
4745;BME280;2386;42.138;24.746;2023-01-19T12:57:34;98671.16;;;20.03;33.98
4745;BME280;2386;42.138;24.746;2023-01-19T13:00:07;98666.06;;;19.88;33.98
4745;BME280;2386;42.138;24.746;2023-01-19T13:03:41;98669.78;;;19.92;34.16
4745;BME280;2386;42.138;24.746;2023-01-19T13:05:51;98687.63;;;19.94;33.61
4745;BME280;2386;42.138;24.746;2023-01-19T13:08:23;98677.56;;;19.90;34.51
4745;BME280;2386;42.138;24.746;2023-01-19T13:21:36;98718.09;;;19.76;37.21
4745;BME280;2386;42.138;24.746;2023-01-19T13:24:07;98706.34;;;19.61;36.03
4745;BME280;2386;42.138;24.746;2023-01-19T13:26:35;98720.41;;;19.60;36.47
4745;BME280;2386;42.138;24.746;2023-01-19T13:31:46;98722.25;;;19.51;37.54
4745;BME280;2386;42.138;24.746;2023-01-19T13:34:18;98716.16;;;19.40;37.10
4745;BME280;2386;42.138;24.746;2023-01-19T13:36:48;98709.66;;;19.36;38.69
4745;BME280;2386;42.138;24.746;2023-01-19T13:39:20;98715.31;;;19.31;36.78
4745;BME280;2386;42.138;24.746;2023-01-19T13:41:51;98720.16;;;19.34;38.11
4745;BME280;2386;42.138;24.746;2023-01-19T13:45:00;98732.94;;;19.30;39.60
4745;BME280;2386;42.138;24.746;2023-01-19T13:47:11;98724.91;;;19.20;41.51
4745;BME280;2386;42.138;24.746;2023-01-19T13:49:42;98731.66;;;19.14;39.47
4745;BME280;2386;42.138;24.746;2023-01-19T13:52:20;98719.25;;;19.02;38.52
4745;BME280;2386;42.138;24.746;2023-01-19T13:54:53;98716.09;;;18.95;40.29
4745;BME280;2386;42.138;24.746;2023-01-19T13:57:32;98717.53;;;18.93;40.18
4745;BME280;2386;42.138;24.746;2023-01-19T14:02:26;98732.00;;;18.71;41.30
4745;BME280;2386;42.138;24.746;2023-01-19T14:04:51;98725.03;;;18.60;38.71
4745;BME280;2386;42.138;24.746;2023-01-19T14:07:19;98717.34;;;18.62;38.83
4745;BME280;2386;42.138;24.746;2023-01-19T14:10:05;98715.41;;;18.62;37.67
4745;BME280;2386;42.138;24.746;2023-01-19T14:12:33;98727.22;;;18.63;39.15
4745;BME280;2386;42.138;24.746;2023-01-19T14:14:59;98719.56;;;18.60;40.66
4745;BME280;2386;42.138;24.746;2023-01-19T14:17:28;98732.59;;;18.54;41.23
4745;BME280;2386;42.138;24.746;2023-01-19T14:19:58;98719.38;;;18.43;41.71
4745;BME280;2386;42.138;24.746;2023-01-19T14:22:45;98724.16;;;18.37;39.47
4745;BME280;2386;42.138;24.746;2023-01-19T14:25:33;98722.41;;;18.27;41.23
4745;BME280;2386;42.138;24.746;2023-01-19T14:28:34;98736.56;;;18.34;41.44
4745;BME280;2386;42.138;24.746;2023-01-19T14:31:02;98725.75;;;18.24;41.88
4745;BME280;2386;42.138;24.746;2023-01-19T14:33:54;98741.72;;;18.22;41.02
4745;BME280;2386;42.138;24.746;2023-01-19T14:36:36;98735.19;;;18.18;42.26
4745;BME280;2386;42.138;24.746;2023-01-19T14:39:04;98737.94;;;18.18;41.58
4745;BME280;2386;42.138;24.746;2023-01-19T14:44:15;98725.13;;;18.14;42.76